Аэропорт: Одесса. Одесса

ICAO: UKOO

METAR:
2018/05/20 23:00
UKOO 202300Z 35003MPS 9999 SCT046 15/13 Q1018 R16/090060 NOSIG
METAR:
2018/05/20 18:12
TAF UKOO 201705Z 2018/2118 05003MPS 2100 BR BKN007 SCT020CB PROB40 
      TEMPO 2018/2024 VRB15MPS 1000 TSRA BKN003 BKN020CB 
      BECMG 2105/2106 6000 NSW 
      BECMG 2111/2112 13003MPS